Cooksville, Maryland
Current Conditions -  °F | °C
As of 12:35 AM on Thursday 18 Dec 2014 (Local Time) from KGAI Reporting Station
Overcast Overcast  
Wind Chill: 27°   Ceiling: 4000
Heat Index: 36°   Visibility: 10mi
Dew Point: 21°   Wind: 13mph
Humidity: 56%   Direction: 300°WNW
Pressure: 30.09"   Gusts: 21mph
Location:  39.32°N, 77.01°W
Report Text: KGAI 180535Z 30011G18KT 10SM OVC040 02/M06 A3009 RMK AO1
Loading
Personal Weather Stations






























Interactive Weather Map New forecast layout! Learn more

10-Day Weather Forecast

Advertisements
Track Severe Weather on mobile